createdAt,value
2022-09-09T00:00:50.627Z,14.27
2022-09-09T00:03:46.570Z,14.23
2022-09-09T00:06:26.625Z,14.24
2022-09-09T00:09:01.602Z,14.17
2022-09-09T00:11:41.315Z,14.14
2022-09-09T00:14:26.453Z,14.12
2022-09-09T00:17:03.046Z,14.13
2022-09-09T00:19:37.725Z,14.12
2022-09-09T00:22:16.511Z,14.08
2022-09-09T00:24:47.110Z,14.06
2022-09-09T00:27:35.032Z,14.00
2022-09-09T00:30:19.688Z,14.02
2022-09-09T00:32:48.144Z,13.98
2022-09-09T00:35:24.812Z,13.95
2022-09-09T00:37:54.421Z,13.95
2022-09-09T00:40:31.774Z,13.98
2022-09-09T00:43:26.777Z,13.96
2022-09-09T00:46:04.000Z,13.98
2022-09-09T00:48:43.935Z,14.02
2022-09-09T00:51:18.845Z,14.02
2022-09-09T00:54:16.529Z,13.98
2022-09-09T00:57:01.334Z,13.98
2022-09-09T00:59:46.839Z,13.99
2022-09-09T01:02:36.658Z,14.01
2022-09-09T01:05:29.903Z,14.01
2022-09-09T01:07:59.493Z,14.04
2022-09-09T01:10:50.995Z,14.05
2022-09-09T01:13:31.249Z,14.04
2022-09-09T01:16:02.011Z,14.06
2022-09-09T01:18:35.631Z,14.09
2022-09-09T01:21:17.166Z,14.09
2022-09-09T01:24:01.914Z,14.11
2022-09-09T01:26:34.025Z,14.14
2022-09-09T01:29:00.895Z,14.14
2022-09-09T01:31:32.444Z,14.17
2022-09-09T01:33:59.394Z,14.15
2022-09-09T01:36:42.583Z,14.16
2022-09-09T01:39:09.327Z,14.21
2022-09-09T01:41:35.969Z,14.26
2022-09-09T01:44:04.408Z,14.31
2022-09-09T01:46:31.112Z,14.32
2022-09-09T01:49:00.098Z,14.37
2022-09-09T01:51:26.722Z,14.39
2022-09-09T01:53:53.222Z,14.41
2022-09-09T01:56:31.897Z,14.46
2022-09-09T01:59:13.468Z,14.48
2022-09-09T02:02:09.496Z,14.53
2022-09-09T02:04:42.856Z,14.57
2022-09-09T02:07:21.713Z,14.59
2022-09-09T02:09:52.997Z,14.65
2022-09-09T02:12:24.261Z,14.67
2022-09-09T02:14:56.839Z,14.72
2022-09-09T02:17:30.027Z,14.77
2022-09-09T02:20:06.273Z,14.78
2022-09-09T02:22:35.897Z,14.82
2022-09-09T02:25:03.924Z,14.84
2022-09-09T02:27:30.642Z,14.88
2022-09-09T02:30:01.472Z,14.88
2022-09-09T02:32:31.539Z,14.92
2022-09-09T02:35:03.310Z,14.91
2022-09-09T02:37:36.197Z,14.90
2022-09-09T02:40:05.589Z,14.90
2022-09-09T02:42:32.486Z,14.89
2022-09-09T02:44:59.295Z,14.91
2022-09-09T02:47:35.962Z,14.94
2022-09-09T02:50:18.379Z,14.98
2022-09-09T02:52:50.884Z,15.00
2022-09-09T02:55:40.902Z,15.02
2022-09-09T02:58:11.394Z,15.03
2022-09-09T03:00:40.659Z,15.02
2022-09-09T03:03:09.812Z,15.06
2022-09-09T03:05:37.455Z,15.05
2022-09-09T03:08:04.592Z,15.10
2022-09-09T03:10:31.321Z,15.11
2022-09-09T03:12:57.802Z,15.13
2022-09-09T03:15:24.353Z,15.16
2022-09-09T03:17:50.867Z,15.15
2022-09-09T03:20:17.464Z,15.15
2022-09-09T03:22:46.021Z,15.14
2022-09-09T03:25:12.522Z,15.12
2022-09-09T03:27:39.072Z,15.11
2022-09-09T03:30:06.237Z,15.06
2022-09-09T03:32:32.746Z,14.99
2022-09-09T03:34:59.338Z,14.99
2022-09-09T03:37:25.963Z,15.00
2022-09-09T03:39:55.330Z,15.00
2022-09-09T03:42:22.074Z,14.92
2022-09-09T03:44:52.330Z,14.92
2022-09-09T03:47:22.820Z,14.86
2022-09-09T03:49:49.360Z,14.82
2022-09-09T03:52:20.425Z,14.83
2022-09-09T03:54:49.551Z,14.81
2022-09-09T03:57:17.777Z,14.77
2022-09-09T03:59:44.969Z,14.72
2022-09-09T04:02:11.807Z,14.68
2022-09-09T04:04:38.405Z,14.70
2022-09-09T04:07:07.899Z,14.65
2022-09-09T04:09:34.537Z,14.50
2022-09-09T04:12:01.038Z,14.50
2022-09-09T04:14:29.712Z,14.46
2022-09-09T04:16:58.439Z,14.41
2022-09-09T04:19:25.137Z,14.35
2022-09-09T04:21:52.666Z,14.26
2022-09-09T04:24:19.958Z,14.22
2022-09-09T04:26:46.597Z,14.17
2022-09-09T04:29:13.227Z,14.14
2022-09-09T04:31:42.928Z,14.10
2022-09-09T04:34:10.552Z,14.11
2022-09-09T04:36:37.282Z,14.09
2022-09-09T04:39:03.936Z,14.09
2022-09-09T04:41:32.447Z,14.08
2022-09-09T04:43:59.917Z,14.01
2022-09-09T04:46:26.706Z,14.01
2022-09-09T04:48:53.858Z,13.98
2022-09-09T04:51:20.701Z,13.95
2022-09-09T04:53:48.579Z,13.93
2022-09-09T04:56:17.199Z,13.93
2022-09-09T04:58:46.767Z,13.83
2022-09-09T05:01:25.663Z,13.85
2022-09-09T05:03:53.765Z,13.85
2022-09-09T05:06:22.544Z,13.87
2022-09-09T05:08:52.066Z,13.87
2022-09-09T05:11:27.514Z,13.90
2022-09-09T05:13:55.215Z,13.90
2022-09-09T05:16:23.928Z,13.83
2022-09-09T05:18:54.640Z,13.81
2022-09-09T05:21:24.075Z,13.70
2022-09-09T05:23:52.283Z,13.71
2022-09-09T05:26:20.898Z,13.76
2022-09-09T05:28:48.032Z,13.80
2022-09-09T05:31:17.180Z,13.83
2022-09-09T05:33:47.040Z,13.81
2022-09-09T05:36:16.536Z,13.79
2022-09-09T05:38:43.549Z,13.79
2022-09-09T05:41:12.265Z,13.78
2022-09-09T05:43:39.839Z,13.83
2022-09-09T05:46:11.329Z,13.82
2022-09-09T05:48:40.048Z,13.90
2022-09-09T05:51:09.553Z,13.93
2022-09-09T05:53:35.990Z,13.94
2022-09-09T05:56:11.522Z,14.00
2022-09-09T05:58:38.637Z,14.08
2022-09-09T06:01:14.485Z,14.14
2022-09-09T06:03:43.143Z,14.20
2022-09-09T06:06:13.023Z,14.25
2022-09-09T06:08:41.430Z,14.28
2022-09-09T06:11:14.649Z,14.30
2022-09-09T06:13:41.406Z,14.36
2022-09-09T06:16:13.236Z,14.39
2022-09-09T06:18:41.024Z,14.39
2022-09-09T06:21:12.598Z,14.40
2022-09-09T06:23:41.432Z,14.44
2022-09-09T06:26:12.202Z,14.49
2022-09-09T06:28:39.412Z,14.59
2022-09-09T06:31:09.066Z,14.74
2022-09-09T06:33:40.306Z,14.89
2022-09-09T06:36:07.144Z,14.99
2022-09-09T06:38:33.911Z,15.08
2022-09-09T06:41:01.352Z,15.15
2022-09-09T06:43:27.880Z,15.26
2022-09-09T06:46:02.583Z,15.32
2022-09-09T06:48:29.473Z,15.36
2022-09-09T06:51:07.304Z,15.44
2022-09-09T06:53:37.351Z,15.47
2022-09-09T06:56:19.456Z,15.51
2022-09-09T06:58:46.658Z,15.58
2022-09-09T07:01:15.906Z,15.63
2022-09-09T07:03:43.474Z,15.58
2022-09-09T07:06:15.827Z,15.60
2022-09-09T07:08:42.389Z,15.71
2022-09-09T07:11:12.470Z,15.76
2022-09-09T07:13:39.248Z,15.75
2022-09-09T07:16:07.874Z,15.83
2022-09-09T07:18:35.833Z,16.02
2022-09-09T07:21:03.961Z,16.23
2022-09-09T07:23:36.052Z,16.40
2022-09-09T07:26:08.362Z,16.60
2022-09-09T07:28:35.629Z,16.72
2022-09-09T07:31:06.127Z,16.91
2022-09-09T07:33:35.522Z,16.90
2022-09-09T07:36:08.061Z,16.80
2022-09-09T07:38:40.575Z,17.09
2022-09-09T07:41:12.741Z,17.30
2022-09-09T07:43:43.590Z,17.49
2022-09-09T07:46:13.094Z,17.56
2022-09-09T07:48:44.720Z,17.67
2022-09-09T07:51:17.910Z,17.83
2022-09-09T07:53:44.887Z,18.05
2022-09-09T07:56:14.038Z,18.03
2022-09-09T07:58:41.765Z,18.10
2022-09-09T08:01:14.825Z,18.20
2022-09-09T08:03:41.310Z,18.04
2022-09-09T08:06:09.813Z,18.39
2022-09-09T08:08:38.094Z,18.39
2022-09-09T08:11:06.103Z,18.28
2022-09-09T08:13:32.632Z,18.17
2022-09-09T08:16:18.460Z,18.17
2022-09-09T08:18:45.719Z,18.34
2022-09-09T08:21:15.700Z,18.25
2022-09-09T08:23:43.491Z,18.27
2022-09-09T08:26:15.885Z,18.44
2022-09-09T08:28:43.636Z,18.30
2022-09-09T08:31:11.473Z,18.28
2022-09-09T08:33:39.460Z,18.22
2022-09-09T08:36:07.963Z,18.13
2022-09-09T08:38:34.776Z,18.02
2022-09-09T08:41:30.460Z,18.08
2022-09-09T08:44:07.860Z,18.08
2022-09-09T08:46:45.291Z,18.00
2022-09-09T08:49:40.998Z,18.08
2022-09-09T08:52:16.973Z,17.94
2022-09-09T08:54:52.220Z,17.82
2022-09-09T08:57:32.105Z,17.73
2022-09-09T08:59:59.435Z,17.67
2022-09-09T09:02:38.452Z,17.65
2022-09-09T09:05:36.741Z,17.83
2022-09-09T09:08:28.015Z,17.95
2022-09-09T09:11:01.430Z,18.13
2022-09-09T09:13:57.712Z,18.19
2022-09-09T09:16:33.595Z,18.26
2022-09-09T09:19:01.235Z,18.37
2022-09-09T09:21:45.195Z,18.14
2022-09-09T09:24:21.999Z,18.18
2022-09-09T09:26:49.245Z,18.34
2022-09-09T09:29:18.601Z,18.27
2022-09-09T09:31:52.443Z,18.15
2022-09-09T09:34:19.178Z,18.31
2022-09-09T09:36:53.826Z,18.32
2022-09-09T09:42:15.076Z,18.47
2022-09-09T09:44:43.095Z,18.63
2022-09-09T09:47:16.652Z,18.77
2022-09-09T09:50:20.366Z,18.68
2022-09-09T09:52:56.919Z,18.74
2022-09-09T09:55:25.106Z,18.76
2022-09-09T09:57:52.360Z,18.80
2022-09-09T10:00:21.737Z,19.01
2022-09-09T10:02:48.909Z,19.10
2022-09-09T10:05:26.287Z,19.26
2022-09-09T10:08:14.243Z,19.42
2022-09-09T10:10:48.178Z,19.46
2022-09-09T10:13:30.296Z,19.37
2022-09-09T10:16:05.321Z,19.33
2022-09-09T10:18:43.070Z,19.30
2022-09-09T10:21:16.615Z,19.55
2022-09-09T10:24:01.424Z,19.55
2022-09-09T10:26:33.220Z,19.58
2022-09-09T10:29:24.807Z,19.67
2022-09-09T10:32:13.108Z,19.62
2022-09-09T10:34:45.992Z,19.77
2022-09-09T10:37:27.747Z,19.79
2022-09-09T10:40:22.314Z,19.79
2022-09-09T10:42:49.224Z,19.87
2022-09-09T10:45:35.268Z,19.87
2022-09-09T10:48:27.415Z,19.87
2022-09-09T10:51:13.174Z,19.79
2022-09-09T10:53:54.310Z,19.74
2022-09-09T10:56:24.967Z,20.10
2022-09-09T10:58:54.814Z,20.39
2022-09-09T11:01:30.367Z,20.31
2022-09-09T11:04:27.293Z,20.39
2022-09-09T11:06:56.435Z,20.52
2022-09-09T11:09:29.153Z,20.37
2022-09-09T11:11:57.666Z,20.17
2022-09-09T11:14:36.882Z,20.64
2022-09-09T11:17:13.875Z,20.85
2022-09-09T11:19:44.215Z,20.68
2022-09-09T11:22:39.734Z,20.65
2022-09-09T11:25:19.929Z,20.46
2022-09-09T11:27:52.454Z,20.48
2022-09-09T11:30:54.904Z,20.57
2022-09-09T11:33:46.662Z,20.79
2022-09-09T11:36:36.887Z,20.49
2022-09-09T11:39:25.394Z,20.93
2022-09-09T11:41:51.921Z,20.89
2022-09-09T11:44:28.152Z,20.56
2022-09-09T11:46:54.722Z,20.25
2022-09-09T11:49:44.276Z,20.39
2022-09-09T11:52:37.006Z,20.48
2022-09-09T11:55:31.996Z,20.51
2022-09-09T11:58:06.351Z,20.50
2022-09-09T12:00:38.022Z,20.38
2022-09-09T12:03:06.023Z,20.42
2022-09-09T12:05:43.168Z,20.58
2022-09-09T12:08:23.439Z,20.40
2022-09-09T12:10:58.596Z,20.38
2022-09-09T12:13:28.001Z,20.49
2022-09-09T12:15:57.121Z,20.50
2022-09-09T12:18:24.752Z,20.43
2022-09-09T12:21:10.011Z,20.18
2022-09-09T12:23:50.866Z,20.24
2022-09-09T12:26:49.947Z,20.40
2022-09-09T12:29:56.473Z,20.55
2022-09-09T12:32:27.919Z,20.42
2022-09-09T12:35:11.090Z,20.23
2022-09-09T12:38:02.290Z,20.23
2022-09-09T12:40:32.530Z,20.60
2022-09-09T12:43:02.923Z,20.55
2022-09-09T12:45:33.047Z,20.35
2022-09-09T12:48:02.732Z,20.57
2022-09-09T12:50:32.396Z,20.61
2022-09-09T12:53:03.017Z,20.50
2022-09-09T12:55:34.337Z,20.52
2022-09-09T12:58:06.553Z,20.44
2022-09-09T13:00:35.310Z,20.60
2022-09-09T13:03:15.676Z,20.64
2022-09-09T13:05:42.283Z,20.70
2022-09-09T13:08:13.804Z,20.68
2022-09-09T13:10:53.773Z,20.82
2022-09-09T13:13:25.280Z,20.74
2022-09-09T13:15:56.093Z,21.07
2022-09-09T13:18:33.234Z,21.68
2022-09-09T13:21:00.402Z,21.95
2022-09-09T13:23:30.427Z,22.40
2022-09-09T13:26:00.512Z,22.18
2022-09-09T13:28:33.471Z,22.30
2022-09-09T13:31:05.879Z,22.86
2022-09-09T13:33:40.062Z,23.01
2022-09-09T13:36:13.252Z,23.08
2022-09-09T13:38:54.618Z,23.23
2022-09-09T13:41:24.593Z,23.52
2022-09-09T13:43:52.969Z,23.67
2022-09-09T13:46:42.659Z,23.84
2022-09-09T13:49:12.290Z,23.59
2022-09-09T13:51:48.429Z,23.71
2022-09-09T13:54:16.751Z,23.28
2022-09-09T13:56:44.218Z,23.27
2022-09-09T13:59:14.120Z,23.42
2022-09-09T14:01:40.795Z,23.37
2022-09-09T14:04:07.942Z,22.97
2022-09-09T14:06:38.275Z,22.68
2022-09-09T14:09:05.911Z,22.50
2022-09-09T14:11:32.478Z,22.61
2022-09-09T14:13:59.043Z,23.02
2022-09-09T14:16:28.853Z,23.59
2022-09-09T14:18:57.740Z,23.75
2022-09-09T14:21:25.201Z,23.65
2022-09-09T14:23:51.728Z,23.52
2022-09-09T14:26:19.926Z,23.51
2022-09-09T14:28:55.724Z,22.92
2022-09-09T14:31:24.457Z,23.30
2022-09-09T14:33:52.042Z,23.25
2022-09-09T14:36:18.766Z,23.25
2022-09-09T14:38:45.278Z,23.22
2022-09-09T14:41:13.963Z,23.03
2022-09-09T14:43:40.838Z,23.12
2022-09-09T14:46:13.195Z,23.77
2022-09-09T14:48:42.655Z,23.40
2022-09-09T14:51:20.647Z,23.08
2022-09-09T14:53:47.931Z,23.33
2022-09-09T14:56:21.221Z,23.11
2022-09-09T14:58:48.615Z,23.12
2022-09-09T15:01:17.292Z,23.32
2022-09-09T15:03:50.839Z,23.55
2022-09-09T15:06:17.842Z,23.15
2022-09-09T15:08:46.261Z,23.55
2022-09-09T15:11:14.550Z,23.76
2022-09-09T15:13:43.289Z,23.65
2022-09-09T15:16:09.815Z,23.27
2022-09-09T15:18:43.636Z,23.13
2022-09-09T15:21:11.780Z,23.23
2022-09-09T15:23:39.037Z,22.98
2022-09-09T15:26:06.571Z,22.95
2022-09-09T15:28:39.077Z,23.09
2022-09-09T15:31:08.915Z,23.27
2022-09-09T15:33:38.431Z,23.19
2022-09-09T15:36:15.628Z,23.01
2022-09-09T15:38:42.297Z,23.02
2022-09-09T15:41:08.824Z,22.90
2022-09-09T15:43:35.393Z,22.62
2022-09-09T15:46:25.315Z,22.40
2022-09-09T15:48:53.886Z,22.37
2022-09-09T15:51:41.108Z,22.50
2022-09-09T15:54:08.070Z,22.21
2022-09-09T15:56:35.777Z,22.22
2022-09-09T15:59:04.037Z,21.96
2022-09-09T16:01:32.046Z,21.85
2022-09-09T16:04:01.020Z,21.94
2022-09-09T16:06:29.467Z,21.79
2022-09-09T16:08:57.866Z,21.44
2022-09-09T16:11:27.227Z,21.11
2022-09-09T16:13:55.352Z,21.05
2022-09-09T16:16:25.730Z,21.27
2022-09-09T16:18:57.289Z,20.98
2022-09-09T16:21:26.851Z,20.69
2022-09-09T16:23:56.925Z,20.82
2022-09-09T16:26:24.162Z,20.57
2022-09-09T16:28:51.008Z,20.50
2022-09-09T16:31:23.733Z,20.49
2022-09-09T16:33:51.753Z,20.51
2022-09-09T16:36:26.930Z,20.44
2022-09-09T16:39:01.000Z,20.26
2022-09-09T16:41:29.426Z,20.16
2022-09-09T16:44:01.124Z,20.05
2022-09-09T16:46:29.762Z,20.04
2022-09-09T16:49:00.544Z,20.01
2022-09-09T16:51:33.471Z,19.92
2022-09-09T16:54:02.953Z,19.86
2022-09-09T16:56:33.984Z,19.90
2022-09-09T16:59:03.504Z,19.68
2022-09-09T17:01:32.731Z,19.50
2022-09-09T17:04:03.393Z,19.61
2022-09-09T17:06:35.563Z,19.42
2022-09-09T17:09:04.713Z,19.31
2022-09-09T17:11:31.320Z,19.16
2022-09-09T17:14:01.739Z,19.19
2022-09-09T17:16:30.693Z,19.08
2022-09-09T17:18:59.562Z,18.99
2022-09-09T17:21:28.177Z,18.94
2022-09-09T17:23:55.700Z,18.97
2022-09-09T17:26:25.276Z,18.78
2022-09-09T17:28:57.337Z,18.66
2022-09-09T17:31:26.923Z,18.70
2022-09-09T17:33:54.199Z,18.68
2022-09-09T17:36:24.353Z,18.66
2022-09-09T17:38:51.701Z,18.54
2022-09-09T17:41:22.718Z,18.43
2022-09-09T17:43:50.479Z,18.50
2022-09-09T17:46:16.992Z,18.43
2022-09-09T17:48:45.562Z,18.39
2022-09-09T17:51:20.348Z,18.21
2022-09-09T17:53:49.677Z,18.08
2022-09-09T17:56:21.468Z,18.03
2022-09-09T17:58:49.348Z,17.99
2022-09-09T18:01:24.605Z,17.97
2022-09-09T18:03:52.318Z,17.93
2022-09-09T18:06:21.675Z,17.87
2022-09-09T18:08:55.474Z,17.68
2022-09-09T18:11:24.171Z,17.72
2022-09-09T18:13:53.195Z,17.69
2022-09-09T18:16:20.202Z,17.66
2022-09-09T18:18:47.491Z,17.64
2022-09-09T18:21:14.386Z,17.51
2022-09-09T18:23:47.084Z,17.38
2022-09-09T18:26:15.603Z,17.36
2022-09-09T18:28:44.105Z,17.28
2022-09-09T18:31:13.513Z,17.27
2022-09-09T18:33:44.090Z,17.06
2022-09-09T18:36:19.561Z,17.06
2022-09-09T18:38:46.295Z,17.05
2022-09-09T18:41:21.536Z,16.90
2022-09-09T18:43:55.053Z,16.92
2022-09-09T18:46:22.505Z,16.86
2022-09-09T18:48:50.534Z,16.85
2022-09-09T18:51:20.703Z,16.84
2022-09-09T18:53:52.517Z,16.76
2022-09-09T18:56:19.392Z,16.78
2022-09-09T18:58:46.128Z,16.73
2022-09-09T19:01:14.570Z,16.70
2022-09-09T19:03:42.175Z,16.64
2022-09-09T19:06:12.536Z,16.61
2022-09-09T19:08:41.440Z,16.60
2022-09-09T19:11:10.690Z,16.54
2022-09-09T19:13:38.274Z,16.48
2022-09-09T19:16:13.142Z,16.43
2022-09-09T19:18:39.948Z,16.34
2022-09-09T19:21:24.110Z,16.33
2022-09-09T19:24:02.121Z,16.26
2022-09-09T19:26:32.200Z,16.25
2022-09-09T19:29:03.163Z,16.22
2022-09-09T19:31:30.357Z,16.18
2022-09-09T19:33:57.258Z,16.14
2022-09-09T19:36:25.705Z,16.13
2022-09-09T19:38:54.245Z,16.10
2022-09-09T19:41:24.625Z,16.10
2022-09-09T19:43:52.702Z,16.13
2022-09-09T19:46:19.240Z,16.14
2022-09-09T19:48:46.828Z,16.12
2022-09-09T19:51:14.619Z,16.16
2022-09-09T19:53:44.361Z,16.16
2022-09-09T19:56:11.681Z,16.16
2022-09-09T19:58:40.220Z,16.16
2022-09-09T20:01:10.583Z,16.14
2022-09-09T20:03:38.738Z,16.11
2022-09-09T20:06:07.015Z,16.12
2022-09-09T20:08:36.624Z,16.08
2022-09-09T20:11:04.692Z,16.08
2022-09-09T20:13:34.067Z,16.03
2022-09-09T20:16:02.038Z,15.95
2022-09-09T20:18:33.859Z,15.90
2022-09-09T20:21:02.372Z,15.91
2022-09-09T20:23:29.420Z,15.86
2022-09-09T20:25:56.645Z,15.89
2022-09-09T20:28:23.199Z,15.89
2022-09-09T20:30:51.451Z,15.85
2022-09-09T20:33:18.482Z,15.85
2022-09-09T20:35:45.723Z,15.80
2022-09-09T20:38:12.215Z,15.78
2022-09-09T20:40:40.129Z,15.73
2022-09-09T20:43:06.666Z,15.66
2022-09-09T20:45:38.005Z,15.63
2022-09-09T20:48:07.313Z,15.61
2022-09-09T20:50:36.917Z,15.57
2022-09-09T20:53:04.128Z,15.60
2022-09-09T20:55:32.410Z,15.59
2022-09-09T20:58:00.230Z,15.60
2022-09-09T21:00:27.026Z,15.62
2022-09-09T21:02:53.503Z,15.64
2022-09-09T21:05:23.932Z,15.61
2022-09-09T21:07:50.761Z,15.61
2022-09-09T21:10:18.179Z,15.64
2022-09-09T21:12:45.135Z,15.65
2022-09-09T21:15:11.798Z,15.67
2022-09-09T21:17:40.252Z,15.68
2022-09-09T21:20:07.441Z,15.70
2022-09-09T21:22:33.935Z,15.68
2022-09-09T21:25:00.475Z,15.72
2022-09-09T21:27:28.249Z,15.73
2022-09-09T21:29:54.757Z,15.75
2022-09-09T21:32:21.451Z,15.76
2022-09-09T21:34:47.943Z,15.80
2022-09-09T21:37:14.423Z,15.78
2022-09-09T21:39:41.024Z,15.77
2022-09-09T21:42:07.618Z,15.78
2022-09-09T21:44:34.141Z,15.76
2022-09-09T21:47:00.643Z,15.76
2022-09-09T21:49:27.497Z,15.78
2022-09-09T21:51:54.221Z,15.73
2022-09-09T21:54:20.845Z,15.70
2022-09-09T21:56:49.738Z,15.73
2022-09-09T21:59:16.357Z,15.75
2022-09-09T22:01:43.173Z,15.72
2022-09-09T22:04:09.810Z,15.70
2022-09-09T22:06:36.596Z,15.72
2022-09-09T22:09:03.440Z,15.80
2022-09-09T22:11:31.374Z,15.82
2022-09-09T22:13:58.026Z,15.84
2022-09-09T22:16:25.487Z,15.85
2022-09-09T22:18:56.690Z,15.86
2022-09-09T22:21:24.104Z,15.82
2022-09-09T22:23:56.565Z,15.83
2022-09-09T22:26:24.708Z,15.86
2022-09-09T22:28:53.760Z,15.77
2022-09-09T22:31:22.825Z,15.78
2022-09-09T22:33:49.608Z,15.79
2022-09-09T22:36:16.175Z,15.64
2022-09-09T22:38:42.823Z,15.65
2022-09-09T22:41:10.340Z,15.67
2022-09-09T22:43:36.962Z,15.56
2022-09-09T22:46:04.306Z,15.59
2022-09-09T22:48:34.483Z,15.56
2022-09-09T22:51:09.069Z,15.55
2022-09-09T22:53:36.132Z,15.50
2022-09-09T22:56:06.067Z,15.49
2022-09-09T22:58:35.221Z,15.48
2022-09-09T23:01:09.924Z,15.46
2022-09-09T23:03:36.420Z,15.47
2022-09-09T23:06:04.153Z,15.45
2022-09-09T23:08:36.505Z,15.42
2022-09-09T23:11:11.763Z,15.31
2022-09-09T23:13:41.389Z,15.33
2022-09-09T23:16:12.237Z,15.23
2022-09-09T23:18:41.895Z,15.25
2022-09-09T23:21:11.322Z,15.22
2022-09-09T23:23:38.518Z,15.07
2022-09-09T23:26:07.140Z,15.06
2022-09-09T23:28:36.068Z,15.06
2022-09-09T23:31:07.066Z,15.05
2022-09-09T23:33:33.899Z,15.06
2022-09-09T23:36:21.463Z,14.99
2022-09-09T23:38:48.725Z,14.91
2022-09-09T23:41:20.138Z,14.90
2022-09-09T23:43:50.221Z,14.85
2022-09-09T23:46:20.370Z,14.82
2022-09-09T23:48:51.594Z,14.77
2022-09-09T23:51:23.488Z,14.77
2022-09-09T23:53:52.311Z,14.74
2022-09-09T23:56:20.584Z,14.67
2022-09-09T23:58:48.876Z,14.71
